createdAt,value
2023-05-21T00:01:48.675Z,23.50
2023-05-21T00:04:18.134Z,20.70
2023-05-21T00:06:46.124Z,20.40
2023-05-21T00:09:14.089Z,20.20
2023-05-21T00:11:42.031Z,20.50
2023-05-21T00:14:10.174Z,22.00
2023-05-21T00:16:38.389Z,19.20
2023-05-21T00:19:06.668Z,20.20
2023-05-21T00:21:34.523Z,25.00
2023-05-21T00:24:02.632Z,19.50
2023-05-21T00:26:30.610Z,17.80
2023-05-21T00:28:58.660Z,19.30
2023-05-21T00:31:27.021Z,17.40
2023-05-21T00:33:54.791Z,19.50
2023-05-21T00:36:24.272Z,19.70
2023-05-21T00:38:52.322Z,20.20
2023-05-21T00:41:20.416Z,18.50
2023-05-21T00:43:48.307Z,17.70
2023-05-21T00:46:19.782Z,21.60
2023-05-21T00:48:48.458Z,18.10
2023-05-21T00:51:18.597Z,22.20
2023-05-21T00:53:49.612Z,18.10
2023-05-21T00:56:17.698Z,18.40
2023-05-21T00:58:45.573Z,18.80
2023-05-21T01:01:14.205Z,18.30
2023-05-21T01:03:42.445Z,17.40
2023-05-21T01:06:11.414Z,18.00
2023-05-21T01:08:41.062Z,18.20
2023-05-21T01:11:09.965Z,19.00
2023-05-21T01:13:39.962Z,17.20
2023-05-21T01:16:09.345Z,18.80
2023-05-21T01:18:38.244Z,18.60
2023-05-21T01:21:07.760Z,18.00
2023-05-21T01:23:36.151Z,18.50
2023-05-21T01:26:04.007Z,16.00
2023-05-21T01:28:34.817Z,18.00
2023-05-21T01:31:16.996Z,16.60
2023-05-21T01:33:49.398Z,16.70
2023-05-21T01:39:09.027Z,13.90
2023-05-21T01:41:39.213Z,15.40
2023-05-21T01:44:07.402Z,20.30
2023-05-21T01:46:36.801Z,16.10
2023-05-21T01:49:06.459Z,14.90
2023-05-21T01:51:35.000Z,15.30
2023-05-21T01:54:02.911Z,17.50
2023-05-21T01:56:34.124Z,16.70
2023-05-21T01:59:02.208Z,14.80
2023-05-21T02:01:30.509Z,16.60
2023-05-21T02:03:59.337Z,15.20
2023-05-21T02:06:27.304Z,15.30
2023-05-21T02:08:55.827Z,16.10
2023-05-21T02:11:24.111Z,17.40
2023-05-21T02:13:52.460Z,18.90
2023-05-21T02:16:22.460Z,16.50
2023-05-21T02:18:57.614Z,15.60
2023-05-21T02:21:25.794Z,15.50
2023-05-21T02:23:53.973Z,14.80
2023-05-21T02:26:23.063Z,16.50
2023-05-21T02:28:55.525Z,16.50
2023-05-21T02:31:23.722Z,19.10
2023-05-21T02:33:51.776Z,14.80
2023-05-21T02:36:19.716Z,15.30
2023-05-21T02:38:48.322Z,17.30
2023-05-21T02:41:16.130Z,14.40
2023-05-21T02:43:44.091Z,15.00
2023-05-21T02:46:12.097Z,17.60
2023-05-21T02:48:39.987Z,17.40
2023-05-21T02:51:07.956Z,16.20
2023-05-21T02:53:35.803Z,14.90
2023-05-21T02:56:04.047Z,15.00
2023-05-21T02:58:32.211Z,15.10
2023-05-21T03:01:00.416Z,14.80
2023-05-21T03:03:28.546Z,15.70
2023-05-21T03:05:56.581Z,16.30
2023-05-21T03:08:24.917Z,15.10
2023-05-21T03:10:52.912Z,15.80
2023-05-21T03:13:21.576Z,15.50
2023-05-21T03:15:49.929Z,14.00
2023-05-21T03:18:17.985Z,15.90
2023-05-21T03:20:45.762Z,14.60
2023-05-21T03:23:16.492Z,15.10
2023-05-21T03:25:46.198Z,14.30
2023-05-21T03:28:14.799Z,16.10
2023-05-21T03:30:46.595Z,16.90
2023-05-21T03:33:14.600Z,14.60
2023-05-21T03:35:42.523Z,15.40
2023-05-21T03:38:10.540Z,16.20
2023-05-21T03:40:38.408Z,13.60
2023-05-21T03:43:06.105Z,15.30
2023-05-21T03:45:34.272Z,17.30
2023-05-21T03:48:02.181Z,16.20
2023-05-21T03:50:30.045Z,15.80
2023-05-21T03:52:57.866Z,21.90
2023-05-21T03:55:29.560Z,20.90
2023-05-21T03:57:57.531Z,15.50
2023-05-21T04:00:25.536Z,15.10
2023-05-21T04:02:55.505Z,16.50
2023-05-21T04:05:23.628Z,15.10
2023-05-21T04:07:51.651Z,14.90
2023-05-21T04:10:19.508Z,14.80
2023-05-21T04:12:49.359Z,17.00
2023-05-21T04:15:18.721Z,16.80
2023-05-21T04:17:47.182Z,17.40
2023-05-21T04:20:17.107Z,13.80
2023-05-21T04:22:45.117Z,15.00
2023-05-21T04:25:13.062Z,16.10
2023-05-21T04:27:42.782Z,17.50
2023-05-21T04:30:11.424Z,16.10
2023-05-21T04:32:39.512Z,14.90
2023-05-21T04:35:07.864Z,17.00
2023-05-21T04:37:36.474Z,14.00
2023-05-21T04:40:04.855Z,14.20
2023-05-21T04:42:33.184Z,15.40
2023-05-21T04:45:01.387Z,15.00
2023-05-21T04:47:30.566Z,15.50
2023-05-21T04:50:02.630Z,15.40
2023-05-21T04:52:31.464Z,15.90
2023-05-21T04:54:59.293Z,16.00
2023-05-21T04:57:28.536Z,15.00
2023-05-21T04:59:58.036Z,14.90
2023-05-21T05:02:25.980Z,13.30
2023-05-21T05:04:54.051Z,16.70
2023-05-21T05:07:22.860Z,14.70
2023-05-21T05:09:50.797Z,13.60
2023-05-21T05:12:18.907Z,13.00
2023-05-21T05:14:47.123Z,14.10
2023-05-21T05:17:14.943Z,13.60
2023-05-21T05:19:42.959Z,15.40
2023-05-21T05:22:13.417Z,14.30
2023-05-21T05:24:42.048Z,13.70
2023-05-21T05:27:09.970Z,15.50
2023-05-21T05:29:38.231Z,14.10
2023-05-21T05:32:06.496Z,13.50
2023-05-21T05:34:34.583Z,12.70
2023-05-21T05:37:03.063Z,14.00
2023-05-21T05:39:30.944Z,13.10
2023-05-21T05:41:58.980Z,11.40
2023-05-21T05:44:27.051Z,13.50
2023-05-21T05:46:54.828Z,11.90
2023-05-21T05:49:23.050Z,13.00
2023-05-21T05:51:51.173Z,11.80
2023-05-21T05:54:19.671Z,12.70
2023-05-21T05:56:47.556Z,11.20
2023-05-21T05:59:16.594Z,11.10
2023-05-21T06:01:44.496Z,11.60
2023-05-21T06:04:12.427Z,9.90
2023-05-21T06:06:40.348Z,10.80
2023-05-21T06:09:08.504Z,11.10
2023-05-21T06:11:36.439Z,11.80
2023-05-21T06:14:04.482Z,11.90
2023-05-21T06:16:32.654Z,12.40
2023-05-21T06:19:01.032Z,11.50
2023-05-21T06:21:29.102Z,14.80
2023-05-21T06:23:56.982Z,12.20
2023-05-21T06:26:24.894Z,10.80
2023-05-21T06:28:53.012Z,11.50
2023-05-21T06:31:22.513Z,9.20
2023-05-21T06:33:50.713Z,9.60
2023-05-21T06:36:18.928Z,12.20
2023-05-21T06:38:48.155Z,13.20
2023-05-21T06:41:16.286Z,12.30
2023-05-21T06:43:44.149Z,10.70
2023-05-21T06:46:12.046Z,10.00
2023-05-21T06:48:39.935Z,13.00
2023-05-21T06:51:07.913Z,10.00
2023-05-21T06:53:35.808Z,11.00
2023-05-21T06:56:03.990Z,9.90
2023-05-21T06:58:31.782Z,9.70
2023-05-21T07:00:59.866Z,11.00
2023-05-21T07:03:28.041Z,10.10
2023-05-21T07:05:57.811Z,10.70
2023-05-21T07:08:25.719Z,10.00
2023-05-21T07:10:53.781Z,9.90
2023-05-21T07:13:22.224Z,9.50
2023-05-21T07:15:50.433Z,10.70
2023-05-21T07:18:19.269Z,12.50
2023-05-21T07:20:47.592Z,10.50
2023-05-21T07:23:15.850Z,9.00
2023-05-21T07:25:43.782Z,10.30
2023-05-21T07:28:11.722Z,13.40
2023-05-21T07:30:39.736Z,11.30
2023-05-21T07:33:08.165Z,9.60
2023-05-21T07:35:36.538Z,9.90
2023-05-21T07:38:04.982Z,9.60
2023-05-21T07:40:32.769Z,10.30
2023-05-21T07:43:01.154Z,9.50
2023-05-21T07:45:29.041Z,8.40
2023-05-21T07:47:56.901Z,9.90
2023-05-21T07:50:25.850Z,10.30
2023-05-21T07:52:53.979Z,8.40
2023-05-21T07:55:21.970Z,9.20
2023-05-21T07:57:52.540Z,9.00
2023-05-21T08:00:24.238Z,10.10
2023-05-21T08:02:52.637Z,9.50
2023-05-21T08:05:21.692Z,8.10
2023-05-21T08:07:49.833Z,10.90
2023-05-21T08:10:19.485Z,8.70
2023-05-21T08:12:47.534Z,9.50
2023-05-21T08:15:15.488Z,9.10
2023-05-21T08:17:43.573Z,9.20
2023-05-21T08:20:13.665Z,8.80
2023-05-21T08:22:41.633Z,8.90
2023-05-21T08:25:09.990Z,8.00
2023-05-21T08:27:38.345Z,7.90
2023-05-21T08:30:06.895Z,10.50
2023-05-21T08:32:34.807Z,8.10
2023-05-21T08:35:02.983Z,7.70
2023-05-21T08:37:30.983Z,7.60
2023-05-21T08:39:58.941Z,7.20
2023-05-21T08:42:37.049Z,7.70
2023-05-21T08:45:07.327Z,7.80
2023-05-21T08:47:37.301Z,8.00
2023-05-21T08:50:05.669Z,8.30
2023-05-21T08:52:33.571Z,7.50
2023-05-21T08:55:03.733Z,7.30
2023-05-21T08:57:31.997Z,7.70
2023-05-21T09:00:00.338Z,7.10
2023-05-21T09:02:30.890Z,5.80
2023-05-21T09:04:59.521Z,8.20
2023-05-21T09:07:29.346Z,6.80
2023-05-21T09:09:59.024Z,8.20
2023-05-21T09:12:28.298Z,10.30
2023-05-21T09:14:58.599Z,6.00
2023-05-21T09:17:26.428Z,7.10
2023-05-21T09:20:14.867Z,8.00
2023-05-21T09:22:50.092Z,8.70
2023-05-21T09:25:22.125Z,6.70
2023-05-21T09:30:21.865Z,7.40
2023-05-21T09:32:57.645Z,7.20
2023-05-21T09:35:25.892Z,6.90
2023-05-21T09:37:54.158Z,8.20
2023-05-21T09:40:23.780Z,6.40
2023-05-21T09:42:55.435Z,6.30
2023-05-21T09:45:27.232Z,6.40
2023-05-21T09:47:56.450Z,6.30
2023-05-21T09:50:28.318Z,5.90
2023-05-21T09:52:56.448Z,7.00
2023-05-21T09:55:26.554Z,6.40
2023-05-21T09:57:54.961Z,6.20
2023-05-21T10:00:28.178Z,7.30
2023-05-21T10:03:01.673Z,7.80
2023-05-21T10:05:30.618Z,6.80
2023-05-21T10:08:03.633Z,6.20
2023-05-21T10:10:32.769Z,5.30
2023-05-21T10:13:07.381Z,5.50
2023-05-21T10:15:41.255Z,6.10
2023-05-21T10:18:10.548Z,6.50
2023-05-21T10:20:39.229Z,6.70
2023-05-21T10:23:07.949Z,7.40
2023-05-21T10:25:36.427Z,5.70
2023-05-21T10:28:04.837Z,5.70
2023-05-21T10:30:33.111Z,5.20
2023-05-21T10:33:02.396Z,6.50
2023-05-21T10:35:30.995Z,5.40
2023-05-21T10:37:59.394Z,6.60
2023-05-21T10:40:27.354Z,5.20
2023-05-21T10:43:14.862Z,4.70
2023-05-21T10:45:47.975Z,4.20
2023-05-21T10:49:06.864Z,4.80
2023-05-21T10:51:39.957Z,5.60
2023-05-21T10:54:26.740Z,5.10
2023-05-21T10:57:18.147Z,4.40
2023-05-21T10:59:47.562Z,4.90
2023-05-21T11:02:16.608Z,3.90
2023-05-21T11:04:45.437Z,6.30
2023-05-21T11:07:13.554Z,4.30
2023-05-21T11:09:42.028Z,7.20
2023-05-21T11:12:10.547Z,4.40
2023-05-21T11:14:40.363Z,5.60
2023-05-21T11:17:36.429Z,4.70
2023-05-21T11:20:08.126Z,5.70
2023-05-21T11:22:36.600Z,4.10
2023-05-21T11:25:05.262Z,4.30
2023-05-21T11:27:37.192Z,7.70
2023-05-21T11:30:09.577Z,4.50
2023-05-21T11:33:01.700Z,5.10
2023-05-21T11:35:29.763Z,5.20
2023-05-21T11:37:57.653Z,4.20
2023-05-21T11:40:26.710Z,5.30
2023-05-21T11:42:56.207Z,4.40
2023-05-21T11:45:30.847Z,5.30
2023-05-21T11:47:58.984Z,7.10
2023-05-21T11:50:27.496Z,4.00
2023-05-21T11:52:56.276Z,4.40
2023-05-21T11:55:26.145Z,5.70
2023-05-21T11:57:55.442Z,4.10
2023-05-21T12:00:23.585Z,4.50
2023-05-21T12:02:52.674Z,5.60
2023-05-21T12:05:21.620Z,3.80
2023-05-21T12:07:52.537Z,4.40
2023-05-21T12:10:22.346Z,4.30
2023-05-21T12:12:54.961Z,3.90
2023-05-21T12:15:26.595Z,4.90
2023-05-21T12:17:55.237Z,6.00
2023-05-21T12:20:23.907Z,4.60
2023-05-21T12:22:52.039Z,5.10
2023-05-21T12:25:21.142Z,4.40
2023-05-21T12:27:52.875Z,4.90
2023-05-21T12:30:21.329Z,4.10
2023-05-21T12:32:49.349Z,3.70
2023-05-21T12:35:24.301Z,4.20
2023-05-21T12:37:52.807Z,3.90
2023-05-21T12:40:21.187Z,5.20
2023-05-21T12:42:49.722Z,3.80
2023-05-21T12:45:18.976Z,4.00
2023-05-21T12:47:56.059Z,4.10
2023-05-21T12:50:24.597Z,5.20
2023-05-21T12:52:56.145Z,4.20
2023-05-21T12:55:26.481Z,6.10
2023-05-21T12:58:08.654Z,4.00
2023-05-21T13:00:37.395Z,6.00
2023-05-21T13:03:06.953Z,5.00
2023-05-21T13:05:35.864Z,4.40
2023-05-21T13:08:03.965Z,3.30
2023-05-21T13:10:31.839Z,5.70
2023-05-21T13:13:00.417Z,4.90
2023-05-21T13:15:28.411Z,5.80
2023-05-21T13:17:57.722Z,5.20
2023-05-21T13:20:27.853Z,4.60
2023-05-21T13:22:56.294Z,4.80
2023-05-21T13:25:32.738Z,5.00
2023-05-21T13:28:03.187Z,6.10
2023-05-21T13:30:31.483Z,6.80
2023-05-21T13:32:59.702Z,5.30
2023-05-21T13:35:27.484Z,5.20
2023-05-21T13:37:55.553Z,4.20
2023-05-21T13:40:24.189Z,4.90
2023-05-21T13:42:52.116Z,5.30
2023-05-21T13:45:20.960Z,4.70
2023-05-21T13:47:49.244Z,4.70
2023-05-21T13:50:17.356Z,4.70
2023-05-21T13:52:46.405Z,6.10
2023-05-21T13:55:16.199Z,9.70
2023-05-21T13:57:44.471Z,4.50
2023-05-21T14:00:15.383Z,5.10
2023-05-21T14:02:43.851Z,4.70
2023-05-21T14:05:13.196Z,6.00
2023-05-21T14:07:42.245Z,5.40
2023-05-21T14:10:11.124Z,4.30
2023-05-21T14:12:39.089Z,3.50
2023-05-21T14:15:07.818Z,6.00
2023-05-21T14:17:36.160Z,3.40
2023-05-21T14:20:04.160Z,6.20
2023-05-21T14:22:32.058Z,4.20
2023-05-21T14:25:00.048Z,5.40
2023-05-21T14:27:27.884Z,3.30
2023-05-21T14:29:55.661Z,5.90
2023-05-21T14:32:24.217Z,4.40
2023-05-21T14:34:52.126Z,3.70
2023-05-21T14:37:19.906Z,3.90
2023-05-21T14:39:48.084Z,5.50
2023-05-21T14:42:16.065Z,5.00
2023-05-21T14:44:43.961Z,5.80
2023-05-21T14:47:11.978Z,5.50
2023-05-21T14:49:39.777Z,4.20
2023-05-21T14:52:07.658Z,7.30
2023-05-21T14:54:36.474Z,4.50
2023-05-21T14:57:04.349Z,3.70
2023-05-21T14:59:32.212Z,4.40
2023-05-21T15:02:00.360Z,5.90
2023-05-21T15:04:28.435Z,5.60
2023-05-21T15:06:56.151Z,4.60
2023-05-21T15:09:24.500Z,4.30
2023-05-21T15:11:53.567Z,5.20
2023-05-21T15:14:21.554Z,4.40
2023-05-21T15:16:49.529Z,3.90
2023-05-21T15:19:17.628Z,4.90
2023-05-21T15:21:45.491Z,3.40
2023-05-21T15:24:13.254Z,3.50
2023-05-21T15:26:41.179Z,4.80
2023-05-21T15:29:09.191Z,4.20
2023-05-21T15:31:37.539Z,4.40
2023-05-21T15:34:05.664Z,4.10
2023-05-21T15:36:33.547Z,4.10
2023-05-21T15:39:03.799Z,4.20
2023-05-21T15:41:35.435Z,4.50
2023-05-21T15:44:03.539Z,4.50
2023-05-21T15:46:31.829Z,5.80
2023-05-21T15:48:59.950Z,4.70
2023-05-21T15:51:27.977Z,5.70
2023-05-21T15:53:56.104Z,3.90
2023-05-21T15:56:24.018Z,4.90
2023-05-21T15:58:52.219Z,6.00
2023-05-21T16:01:20.089Z,3.70
2023-05-21T16:03:48.184Z,4.30
2023-05-21T16:06:16.233Z,4.90
2023-05-21T16:08:44.234Z,4.30
2023-05-21T16:11:12.497Z,4.30
2023-05-21T16:13:41.230Z,3.10
2023-05-21T16:16:09.138Z,4.00
2023-05-21T16:18:37.852Z,3.90
2023-05-21T16:21:05.680Z,5.40
2023-05-21T16:23:34.476Z,6.30
2023-05-21T16:26:02.320Z,4.50
2023-05-21T16:28:30.312Z,4.70
2023-05-21T16:30:58.344Z,5.90
2023-05-21T16:33:26.444Z,3.50
2023-05-21T16:35:54.555Z,5.30
2023-05-21T16:38:22.614Z,4.50
2023-05-21T16:40:50.672Z,4.20
2023-05-21T16:43:18.471Z,3.90
2023-05-21T16:45:47.366Z,5.60
2023-05-21T16:48:16.423Z,6.30
2023-05-21T16:50:44.430Z,5.70
2023-05-21T16:53:12.897Z,5.10
2023-05-21T16:55:40.687Z,4.00
2023-05-21T16:58:09.600Z,3.60
2023-05-21T17:00:37.784Z,3.30
2023-05-21T17:03:05.899Z,3.80
2023-05-21T17:05:34.746Z,3.80
2023-05-21T17:08:02.999Z,4.60
2023-05-21T17:10:33.039Z,4.50
2023-05-21T17:13:09.640Z,3.90
2023-05-21T17:15:45.986Z,3.00
2023-05-21T17:18:14.131Z,4.20
2023-05-21T17:20:43.997Z,5.50
2023-05-21T17:23:12.442Z,4.30
2023-05-21T17:25:41.096Z,4.90
2023-05-21T17:28:09.532Z,7.30
2023-05-21T17:30:37.455Z,6.90
2023-05-21T17:33:06.746Z,3.60
2023-05-21T17:35:34.800Z,5.90
2023-05-21T17:38:03.173Z,3.60
2023-05-21T17:40:31.109Z,4.20
2023-05-21T17:42:59.167Z,4.60
2023-05-21T17:45:27.017Z,3.90
2023-05-21T17:47:56.141Z,3.40
2023-05-21T17:50:26.292Z,4.70
2023-05-21T17:52:54.194Z,3.50
2023-05-21T17:55:21.962Z,3.60
2023-05-21T17:57:49.871Z,6.20
2023-05-21T18:00:17.995Z,3.20
2023-05-21T18:02:46.029Z,6.30
2023-05-21T18:05:13.951Z,4.80
2023-05-21T18:07:41.812Z,3.40
2023-05-21T18:10:10.014Z,6.10
2023-05-21T18:12:38.009Z,3.80
2023-05-21T18:15:06.681Z,4.20
2023-05-21T18:17:34.996Z,4.90
2023-05-21T18:20:04.544Z,3.50
2023-05-21T18:22:32.648Z,5.00
2023-05-21T18:25:00.451Z,4.20
2023-05-21T18:27:28.586Z,4.30
2023-05-21T18:29:57.031Z,3.80
2023-05-21T18:32:25.208Z,4.50
2023-05-21T18:34:53.220Z,3.80
2023-05-21T18:37:21.855Z,5.70
2023-05-21T18:39:49.760Z,4.60
2023-05-21T18:42:17.706Z,6.00
2023-05-21T18:44:46.617Z,4.40
2023-05-21T18:47:14.505Z,4.70
2023-05-21T18:49:42.639Z,4.90
2023-05-21T18:52:10.867Z,6.20
2023-05-21T18:54:38.799Z,4.80
2023-05-21T18:57:06.634Z,3.90
2023-05-21T18:59:34.400Z,4.40
2023-05-21T19:02:03.572Z,6.60
2023-05-21T19:04:32.145Z,7.00
2023-05-21T19:07:00.533Z,5.50
2023-05-21T19:09:28.786Z,5.00
2023-05-21T19:11:57.558Z,8.20
2023-05-21T19:14:25.721Z,4.50
2023-05-21T19:16:53.487Z,5.20
2023-05-21T19:19:21.741Z,3.30
2023-05-21T19:21:49.767Z,4.10
2023-05-21T19:24:17.790Z,4.80
2023-05-21T19:26:45.816Z,4.80
2023-05-21T19:29:13.610Z,4.30
2023-05-21T19:31:42.958Z,4.10
2023-05-21T19:34:11.032Z,5.90
2023-05-21T19:36:52.372Z,4.90
2023-05-21T19:39:21.657Z,6.70
2023-05-21T19:41:49.554Z,4.70
2023-05-21T19:44:17.569Z,5.50
2023-05-21T19:46:45.523Z,3.10
2023-05-21T19:49:16.083Z,5.40
2023-05-21T19:51:44.223Z,4.60
2023-05-21T19:54:12.066Z,3.90
2023-05-21T19:56:40.204Z,5.10
2023-05-21T19:59:08.097Z,4.60
2023-05-21T20:01:39.432Z,7.10
2023-05-21T20:04:07.967Z,4.00
2023-05-21T20:06:36.259Z,4.50
2023-05-21T20:09:05.389Z,4.40
2023-05-21T20:11:33.778Z,4.70
2023-05-21T20:14:02.363Z,4.70
2023-05-21T20:16:30.651Z,4.20
2023-05-21T20:18:58.801Z,5.60
2023-05-21T20:21:26.917Z,5.10
2023-05-21T20:23:54.987Z,5.10
2023-05-21T20:26:23.376Z,4.80
2023-05-21T20:28:51.168Z,5.00
2023-05-21T20:31:19.246Z,6.80
2023-05-21T20:33:50.893Z,5.40
2023-05-21T20:36:21.396Z,6.80
2023-05-21T20:38:49.142Z,5.30
2023-05-21T20:41:17.350Z,4.90
2023-05-21T20:43:45.533Z,5.40
2023-05-21T20:46:13.762Z,5.00
2023-05-21T20:48:41.873Z,5.80
2023-05-21T20:51:09.979Z,5.80
2023-05-21T20:53:37.938Z,6.60
2023-05-21T20:56:08.639Z,5.60
2023-05-21T20:58:36.960Z,5.20
2023-05-21T21:01:04.964Z,4.80
2023-05-21T21:03:34.426Z,4.30
2023-05-21T21:06:03.368Z,6.20
2023-05-21T21:08:31.611Z,4.80
2023-05-21T21:10:59.712Z,8.50
2023-05-21T21:13:27.658Z,5.00
2023-05-21T21:15:55.812Z,6.30
2023-05-21T21:18:23.748Z,5.60
2023-05-21T21:20:51.597Z,4.90
2023-05-21T21:23:20.110Z,6.00
2023-05-21T21:25:48.050Z,5.30
2023-05-21T21:28:16.000Z,7.70
2023-05-21T21:30:44.481Z,4.90
2023-05-21T21:33:14.500Z,4.40
2023-05-21T21:35:42.745Z,6.10
2023-05-21T21:38:10.791Z,5.60
2023-05-21T21:40:38.935Z,4.90
2023-05-21T21:43:06.999Z,4.80
2023-05-21T21:45:34.861Z,5.70
2023-05-21T21:48:02.929Z,5.70
2023-05-21T21:50:30.800Z,4.50
2023-05-21T21:53:00.103Z,6.80
2023-05-21T21:55:29.841Z,4.70
2023-05-21T21:57:57.771Z,6.00
2023-05-21T22:00:26.877Z,5.70
2023-05-21T22:02:54.900Z,6.40
2023-05-21T22:05:22.732Z,5.60
2023-05-21T22:07:51.464Z,7.70
2023-05-21T22:10:19.543Z,5.30
2023-05-21T22:12:47.542Z,7.00
2023-05-21T22:15:20.500Z,5.40
2023-05-21T22:17:52.168Z,5.50
2023-05-21T22:20:22.211Z,4.80
2023-05-21T22:22:50.257Z,5.00
2023-05-21T22:25:18.193Z,7.30
2023-05-21T22:27:46.478Z,5.10
2023-05-21T22:30:14.429Z,6.50
2023-05-21T22:32:42.190Z,4.70
2023-05-21T22:35:10.355Z,5.00
2023-05-21T22:37:38.784Z,6.60
2023-05-21T22:40:07.102Z,4.50
2023-05-21T22:42:36.547Z,5.10
2023-05-21T22:45:04.957Z,6.80
2023-05-21T22:47:32.850Z,5.40
2023-05-21T22:50:01.653Z,5.70
2023-05-21T22:52:29.482Z,8.30
2023-05-21T22:54:58.950Z,6.30
2023-05-21T22:57:27.697Z,4.90
2023-05-21T22:59:56.088Z,5.70
2023-05-21T23:02:23.988Z,6.30
2023-05-21T23:04:52.236Z,5.50
2023-05-21T23:07:20.117Z,4.50
2023-05-21T23:09:48.013Z,5.40
2023-05-21T23:12:16.418Z,4.70
2023-05-21T23:14:44.337Z,4.70
2023-05-21T23:17:12.105Z,6.30
2023-05-21T23:19:40.402Z,6.60
2023-05-21T23:22:08.332Z,4.80
2023-05-21T23:24:36.489Z,7.40
2023-05-21T23:27:07.198Z,5.10
2023-05-21T23:29:35.203Z,6.50
2023-05-21T23:32:05.347Z,5.40
2023-05-21T23:34:33.544Z,9.50
2023-05-21T23:37:01.422Z,4.50
2023-05-21T23:39:29.279Z,5.80
2023-05-21T23:41:57.430Z,4.80
2023-05-21T23:44:25.466Z,6.20
2023-05-21T23:46:53.233Z,7.80
2023-05-21T23:49:21.321Z,5.80
2023-05-21T23:51:50.834Z,9.30
2023-05-21T23:54:18.908Z,5.50
2023-05-21T23:56:47.044Z,4.90
2023-05-21T23:59:16.248Z,4.40
